sensor_id;sensor_type;location;lat;lon;timestamp;temperature;humidity
28010;DHT22;15334;49.494;8.410;2022-08-27T19:33:34;22.20;99.90
28010;DHT22;15334;49.494;8.410;2022-08-27T19:36:02;22.10;99.90
28010;DHT22;15334;49.494;8.410;2022-08-27T19:38:31;22.10;99.90
28010;DHT22;15334;49.494;8.410;2022-08-27T19:41:03;22.10;99.90
28010;DHT22;15334;49.494;8.410;2022-08-27T19:43:31;22.20;99.90
28010;DHT22;15334;49.494;8.410;2022-08-27T19:46:00;22.20;99.90
28010;DHT22;15334;49.494;8.410;2022-08-27T19:48:30;22.20;99.90
28010;DHT22;15334;49.494;8.410;2022-08-27T19:51:00;22.20;99.90
28010;DHT22;15334;49.494;8.410;2022-08-27T19:53:29;22.20;99.90
28010;DHT22;15334;49.494;8.410;2022-08-27T19:55:58;22.20;99.90
28010;DHT22;15334;49.494;8.410;2022-08-27T19:58:29;22.30;99.90
28010;DHT22;15334;49.494;8.410;2022-08-27T20:00:59;22.30;99.90
28010;DHT22;15334;49.494;8.410;2022-08-27T20:03:27;22.30;99.90
28010;DHT22;15334;49.494;8.410;2022-08-27T20:05:55;22.30;99.90
28010;DHT22;15334;49.494;8.410;2022-08-27T20:08:25;22.20;99.90
28010;DHT22;15334;49.494;8.410;2022-08-27T20:10:53;22.20;99.90
28010;DHT22;15334;49.494;8.410;2022-08-27T20:13:21;22.20;99.90
28010;DHT22;15334;49.494;8.410;2022-08-27T20:15:49;22.10;99.90
28010;DHT22;15334;49.494;8.410;2022-08-27T20:18:19;22.10;99.90
28010;DHT22;15334;49.494;8.410;2022-08-27T20:20:47;22.00;99.90
28010;DHT22;15334;49.494;8.410;2022-08-27T20:23:15;22.00;99.90
28010;DHT22;15334;49.494;8.410;2022-08-27T20:25:47;22.00;99.90
28010;DHT22;15334;49.494;8.410;2022-08-27T20:28:18;22.10;99.90
28010;DHT22;15334;49.494;8.410;2022-08-27T20:31:05;22.10;99.90
28010;DHT22;15334;49.494;8.410;2022-08-27T20:33:33;22.10;99.90
28010;DHT22;15334;49.494;8.410;2022-08-27T20:36:01;22.20;99.90
28010;DHT22;15334;49.494;8.410;2022-08-27T20:38:29;22.20;99.90
28010;DHT22;15334;49.494;8.410;2022-08-27T20:40:59;22.20;99.90
28010;DHT22;15334;49.494;8.410;2022-08-27T20:43:27;22.20;99.90
28010;DHT22;15334;49.494;8.410;2022-08-27T20:45:58;22.30;99.90
28010;DHT22;15334;49.494;8.410;2022-08-27T20:48:26;22.30;99.90
28010;DHT22;15334;49.494;8.410;2022-08-27T20:50:55;22.20;99.90
28010;DHT22;15334;49.494;8.410;2022-08-27T20:53:25;22.20;99.90
28010;DHT22;15334;49.494;8.410;2022-08-27T20:55:54;22.20;99.90
28010;DHT22;15334;49.494;8.410;2022-08-27T20:58:26;22.30;99.90
28010;DHT22;15334;49.494;8.410;2022-08-27T21:01:12;22.30;99.90
28010;DHT22;15334;49.494;8.410;2022-08-27T21:03:40;22.30;99.90
28010;DHT22;15334;49.494;8.410;2022-08-27T21:06:08;22.30;99.90
28010;DHT22;15334;49.494;8.410;2022-08-27T21:08:36;22.30;99.90
28010;DHT22;15334;49.494;8.410;2022-08-27T21:11:08;22.30;99.90
28010;DHT22;15334;49.494;8.410;2022-08-27T21:13:38;22.30;99.90
28010;DHT22;15334;49.494;8.410;2022-08-27T21:16:21;22.30;99.90
28010;DHT22;15334;49.494;8.410;2022-08-27T21:18:50;22.40;99.90
28010;DHT22;15334;49.494;8.410;2022-08-27T21:21:19;22.40;99.90
28010;DHT22;15334;49.494;8.410;2022-08-27T21:23:48;22.40;99.90
28010;DHT22;15334;49.494;8.410;2022-08-27T21:26:16;22.40;99.90
28010;DHT22;15334;49.494;8.410;2022-08-27T21:28:46;22.40;99.90
28010;DHT22;15334;49.494;8.410;2022-08-27T21:31:21;22.30;99.90
28010;DHT22;15334;49.494;8.410;2022-08-27T21:33:49;22.30;99.90
28010;DHT22;15334;49.494;8.410;2022-08-27T21:36:17;22.30;99.90
28010;DHT22;15334;49.494;8.410;2022-08-27T21:38:45;22.30;99.90
28010;DHT22;15334;49.494;8.410;2022-08-27T21:41:13;22.30;99.90
28010;DHT22;15334;49.494;8.410;2022-08-27T21:43:41;22.30;99.90
28010;DHT22;15334;49.494;8.410;2022-08-27T21:46:10;22.30;99.90
28010;DHT22;15334;49.494;8.410;2022-08-27T21:48:38;22.30;99.90
28010;DHT22;15334;49.494;8.410;2022-08-27T21:51:07;22.30;99.90
28010;DHT22;15334;49.494;8.410;2022-08-27T21:53:36;22.20;99.90
28010;DHT22;15334;49.494;8.410;2022-08-27T21:56:04;22.30;99.90
28010;DHT22;15334;49.494;8.410;2022-08-27T21:58:33;22.30;99.90
28010;DHT22;15334;49.494;8.410;2022-08-27T22:01:02;22.30;99.90
28010;DHT22;15334;49.494;8.410;2022-08-27T22:03:34;22.20;99.90
28010;DHT22;15334;49.494;8.410;2022-08-27T22:06:02;22.20;99.90
28010;DHT22;15334;49.494;8.410;2022-08-27T22:08:32;22.20;99.90
28010;DHT22;15334;49.494;8.410;2022-08-27T22:11:01;22.20;99.90
28010;DHT22;15334;49.494;8.410;2022-08-27T22:13:29;22.10;99.90
28010;DHT22;15334;49.494;8.410;2022-08-27T22:15:57;22.10;99.90
28010;DHT22;15334;49.494;8.410;2022-08-27T22:18:25;22.00;99.90
28010;DHT22;15334;49.494;8.410;2022-08-27T22:20:56;22.00;99.90
28010;DHT22;15334;49.494;8.410;2022-08-27T22:23:25;21.90;99.90
28010;DHT22;15334;49.494;8.410;2022-08-27T22:25:54;21.90;99.90
28010;DHT22;15334;49.494;8.410;2022-08-27T22:28:22;21.80;99.90
28010;DHT22;15334;49.494;8.410;2022-08-27T22:30:50;21.80;99.90
28010;DHT22;15334;49.494;8.410;2022-08-27T22:33:19;21.70;99.90
28010;DHT22;15334;49.494;8.410;2022-08-27T22:35:47;21.60;99.90
28010;DHT22;15334;49.494;8.410;2022-08-27T22:38:16;21.60;99.90
28010;DHT22;15334;49.494;8.410;2022-08-27T22:40:44;21.50;99.90
28010;DHT22;15334;49.494;8.410;2022-08-27T22:43:13;21.50;99.90
28010;DHT22;15334;49.494;8.410;2022-08-27T22:45:41;21.50;99.90
28010;DHT22;15334;49.494;8.410;2022-08-27T22:48:09;21.50;99.90
28010;DHT22;15334;49.494;8.410;2022-08-27T22:50:37;21.50;99.90
28010;DHT22;15334;49.494;8.410;2022-08-27T22:53:05;21.50;99.90
28010;DHT22;15334;49.494;8.410;2022-08-27T22:55:35;21.50;99.90
28010;DHT22;15334;49.494;8.410;2022-08-27T22:58:03;21.50;99.90
28010;DHT22;15334;49.494;8.410;2022-08-27T23:00:34;21.50;99.90
28010;DHT22;15334;49.494;8.410;2022-08-27T23:03:04;21.40;99.90
28010;DHT22;15334;49.494;8.410;2022-08-27T23:05:32;21.40;99.90
28010;DHT22;15334;49.494;8.410;2022-08-27T23:08:09;21.30;99.90
28010;DHT22;15334;49.494;8.410;2022-08-27T23:10:40;21.30;99.90
28010;DHT22;15334;49.494;8.410;2022-08-27T23:13:09;21.30;99.90
28010;DHT22;15334;49.494;8.410;2022-08-27T23:15:38;21.30;99.90
28010;DHT22;15334;49.494;8.410;2022-08-27T23:18:06;21.30;99.90
28010;DHT22;15334;49.494;8.410;2022-08-27T23:20:34;21.30;99.90
28010;DHT22;15334;49.494;8.410;2022-08-27T23:23:02;21.40;99.90
28010;DHT22;15334;49.494;8.410;2022-08-27T23:25:33;21.40;99.90
28010;DHT22;15334;49.494;8.410;2022-08-27T23:28:20;21.40;99.90
28010;DHT22;15334;49.494;8.410;2022-08-27T23:30:49;21.40;99.90
